sensor_id;sensor_type;location;lat;lon;timestamp;P1;durP1;ratioP1;P2;durP2;ratioP2
83632;SDS011;73595;53.084;6.696;2024-03-02T00:02:07;3.95;;;2.80;;
83632;SDS011;73595;53.084;6.696;2024-03-02T00:04:32;3.67;;;2.60;;
83632;SDS011;73595;53.084;6.696;2024-03-02T00:06:58;3.90;;;2.78;;
83632;SDS011;73595;53.084;6.696;2024-03-02T00:09:24;3.40;;;2.70;;
83632;SDS011;73595;53.084;6.696;2024-03-02T00:11:49;4.00;;;2.90;;
83632;SDS011;73595;53.084;6.696;2024-03-02T00:14:16;4.18;;;2.42;;
83632;SDS011;73595;53.084;6.696;2024-03-02T00:16:41;5.13;;;2.80;;
83632;SDS011;73595;53.084;6.696;2024-03-02T00:19:07;4.35;;;2.83;;
83632;SDS011;73595;53.084;6.696;2024-03-02T00:21:34;4.30;;;2.83;;
83632;SDS011;73595;53.084;6.696;2024-03-02T00:24:00;5.03;;;2.92;;
83632;SDS011;73595;53.084;6.696;2024-03-02T00:26:32;4.05;;;3.00;;
83632;SDS011;73595;53.084;6.696;2024-03-02T00:28:57;4.10;;;2.70;;
83632;SDS011;73595;53.084;6.696;2024-03-02T00:31:25;4.85;;;3.20;;
83632;SDS011;73595;53.084;6.696;2024-03-02T00:33:50;5.22;;;3.50;;
83632;SDS011;73595;53.084;6.696;2024-03-02T00:36:26;8.05;;;3.20;;
83632;SDS011;73595;53.084;6.696;2024-03-02T00:38:54;6.35;;;2.92;;
83632;SDS011;73595;53.084;6.696;2024-03-02T00:41:30;6.18;;;2.97;;
83632;SDS011;73595;53.084;6.696;2024-03-02T00:44:00;10.75;;;3.90;;
83632;SDS011;73595;53.084;6.696;2024-03-02T00:46:33;5.35;;;3.42;;
83632;SDS011;73595;53.084;6.696;2024-03-02T00:49:16;9.73;;;3.58;;
83632;SDS011;73595;53.084;6.696;2024-03-02T00:51:49;4.95;;;3.20;;
83632;SDS011;73595;53.084;6.696;2024-03-02T00:54:19;4.80;;;3.33;;
83632;SDS011;73595;53.084;6.696;2024-03-02T00:56:45;5.18;;;3.40;;
83632;SDS011;73595;53.084;6.696;2024-03-02T00:59:12;5.93;;;3.40;;
83632;SDS011;73595;53.084;6.696;2024-03-02T01:01:37;6.53;;;3.45;;
83632;SDS011;73595;53.084;6.696;2024-03-02T01:04:03;5.32;;;3.30;;
83632;SDS011;73595;53.084;6.696;2024-03-02T01:06:30;5.10;;;3.40;;
83632;SDS011;73595;53.084;6.696;2024-03-02T01:08:56;5.18;;;3.38;;
83632;SDS011;73595;53.084;6.696;2024-03-02T01:11:21;5.10;;;3.70;;
83632;SDS011;73595;53.084;6.696;2024-03-02T01:13:48;7.43;;;3.60;;
83632;SDS011;73595;53.084;6.696;2024-03-02T01:16:13;5.53;;;3.47;;
83632;SDS011;73595;53.084;6.696;2024-03-02T01:18:41;6.07;;;3.97;;
83632;SDS011;73595;53.084;6.696;2024-03-02T01:21:06;6.03;;;3.75;;
83632;SDS011;73595;53.084;6.696;2024-03-02T01:23:33;6.85;;;3.72;;
83632;SDS011;73595;53.084;6.696;2024-03-02T01:25:58;5.57;;;3.97;;
83632;SDS011;73595;53.084;6.696;2024-03-02T01:28:24;5.57;;;3.88;;
83632;SDS011;73595;53.084;6.696;2024-03-02T01:30:49;5.25;;;3.95;;
83632;SDS011;73595;53.084;6.696;2024-03-02T01:33:15;5.60;;;3.88;;
83632;SDS011;73595;53.084;6.696;2024-03-02T01:35:42;6.15;;;3.85;;
83632;SDS011;73595;53.084;6.696;2024-03-02T01:38:07;6.65;;;4.07;;
83632;SDS011;73595;53.084;6.696;2024-03-02T01:40:36;6.30;;;4.05;;
83632;SDS011;73595;53.084;6.696;2024-03-02T01:43:06;9.40;;;4.30;;
83632;SDS011;73595;53.084;6.696;2024-03-02T01:45:32;7.00;;;3.75;;
83632;SDS011;73595;53.084;6.696;2024-03-02T01:47:58;6.93;;;3.85;;
83632;SDS011;73595;53.084;6.696;2024-03-02T01:50:33;6.18;;;3.95;;
83632;SDS011;73595;53.084;6.696;2024-03-02T01:53:00;5.75;;;3.88;;
83632;SDS011;73595;53.084;6.696;2024-03-02T01:55:27;5.60;;;3.83;;
83632;SDS011;73595;53.084;6.696;2024-03-02T01:57:55;7.90;;;4.10;;
83632;SDS011;73595;53.084;6.696;2024-03-02T02:00:20;7.53;;;4.18;;
83632;SDS011;73595;53.084;6.696;2024-03-02T02:02:47;5.00;;;3.85;;
83632;SDS011;73595;53.084;6.696;2024-03-02T02:05:15;6.43;;;3.92;;
83632;SDS011;73595;53.084;6.696;2024-03-02T02:07:41;8.38;;;4.18;;
83632;SDS011;73595;53.084;6.696;2024-03-02T02:10:07;5.13;;;3.50;;
83632;SDS011;73595;53.084;6.696;2024-03-02T02:12:34;4.60;;;3.55;;
83632;SDS011;73595;53.084;6.696;2024-03-02T02:15:00;6.60;;;3.97;;
83632;SDS011;73595;53.084;6.696;2024-03-02T02:17:25;7.07;;;3.90;;
83632;SDS011;73595;53.084;6.696;2024-03-02T02:19:51;5.32;;;3.60;;
83632;SDS011;73595;53.084;6.696;2024-03-02T02:22:16;5.20;;;3.83;;
83632;SDS011;73595;53.084;6.696;2024-03-02T02:24:42;7.78;;;3.70;;
83632;SDS011;73595;53.084;6.696;2024-03-02T02:27:07;5.28;;;3.50;;
83632;SDS011;73595;53.084;6.696;2024-03-02T02:29:34;9.15;;;3.63;;
83632;SDS011;73595;53.084;6.696;2024-03-02T02:31:59;5.82;;;4.00;;
83632;SDS011;73595;53.084;6.696;2024-03-02T02:34:24;4.28;;;3.33;;
83632;SDS011;73595;53.084;6.696;2024-03-02T02:36:50;5.63;;;3.45;;
83632;SDS011;73595;53.084;6.696;2024-03-02T02:39:15;6.75;;;3.70;;
83632;SDS011;73595;53.084;6.696;2024-03-02T02:41:44;6.55;;;3.50;;
83632;SDS011;73595;53.084;6.696;2024-03-02T02:44:10;5.40;;;3.20;;
83632;SDS011;73595;53.084;6.696;2024-03-02T02:46:37;4.85;;;3.33;;
83632;SDS011;73595;53.084;6.696;2024-03-02T02:49:03;5.45;;;3.17;;
83632;SDS011;73595;53.084;6.696;2024-03-02T02:51:28;6.75;;;3.45;;
83632;SDS011;73595;53.084;6.696;2024-03-02T02:53:54;5.03;;;3.30;;
83632;SDS011;73595;53.084;6.696;2024-03-02T02:56:19;4.38;;;2.95;;
83632;SDS011;73595;53.084;6.696;2024-03-02T02:58:44;4.28;;;2.85;;
83632;SDS011;73595;53.084;6.696;2024-03-02T03:01:10;4.43;;;2.90;;
83632;SDS011;73595;53.084;6.696;2024-03-02T03:03:35;4.70;;;2.90;;
83632;SDS011;73595;53.084;6.696;2024-03-02T03:06:01;4.57;;;2.50;;
83632;SDS011;73595;53.084;6.696;2024-03-02T03:08:27;4.93;;;2.63;;
83632;SDS011;73595;53.084;6.696;2024-03-02T03:10:52;3.40;;;2.50;;
83632;SDS011;73595;53.084;6.696;2024-03-02T03:13:18;2.95;;;2.30;;
83632;SDS011;73595;53.084;6.696;2024-03-02T03:15:43;3.60;;;2.20;;
83632;SDS011;73595;53.084;6.696;2024-03-02T03:18:08;6.20;;;2.88;;
83632;SDS011;73595;53.084;6.696;2024-03-02T03:20:35;8.02;;;2.55;;
83632;SDS011;73595;53.084;6.696;2024-03-02T03:23:00;3.25;;;2.17;;
83632;SDS011;73595;53.084;6.696;2024-03-02T03:25:26;2.55;;;2.13;;
83632;SDS011;73595;53.084;6.696;2024-03-02T03:27:51;3.58;;;2.20;;
83632;SDS011;73595;53.084;6.696;2024-03-02T03:30:19;2.95;;;2.10;;
83632;SDS011;73595;53.084;6.696;2024-03-02T03:32:46;5.28;;;2.50;;
83632;SDS011;73595;53.084;6.696;2024-03-02T03:35:13;3.17;;;2.08;;
83632;SDS011;73595;53.084;6.696;2024-03-02T03:37:40;2.75;;;2.10;;
83632;SDS011;73595;53.084;6.696;2024-03-02T03:40:05;4.10;;;2.17;;
83632;SDS011;73595;53.084;6.696;2024-03-02T03:42:39;3.75;;;2.40;;
83632;SDS011;73595;53.084;6.696;2024-03-02T03:45:04;5.90;;;2.22;;
83632;SDS011;73595;53.084;6.696;2024-03-02T03:47:31;4.40;;;3.03;;
83632;SDS011;73595;53.084;6.696;2024-03-02T03:49:57;4.60;;;2.30;;
83632;SDS011;73595;53.084;6.696;2024-03-02T03:52:23;4.25;;;2.40;;
83632;SDS011;73595;53.084;6.696;2024-03-02T03:54:48;4.97;;;2.53;;
83632;SDS011;73595;53.084;6.696;2024-03-02T03:57:13;3.53;;;2.40;;
83632;SDS011;73595;53.084;6.696;2024-03-02T03:59:39;4.20;;;2.60;;
83632;SDS011;73595;53.084;6.696;2024-03-02T04:02:04;6.20;;;2.45;;
83632;SDS011;73595;53.084;6.696;2024-03-02T04:04:29;3.90;;;2.13;;
83632;SDS011;73595;53.084;6.696;2024-03-02T04:06:55;4.05;;;2.45;;
83632;SDS011;73595;53.084;6.696;2024-03-02T04:09:20;3.97;;;2.38;;
83632;SDS011;73595;53.084;6.696;2024-03-02T04:11:46;5.60;;;2.58;;
83632;SDS011;73595;53.084;6.696;2024-03-02T04:14:11;6.85;;;3.10;;
83632;SDS011;73595;53.084;6.696;2024-03-02T04:16:37;6.32;;;2.40;;
83632;SDS011;73595;53.084;6.696;2024-03-02T04:19:03;5.50;;;2.53;;
83632;SDS011;73595;53.084;6.696;2024-03-02T04:21:28;4.50;;;2.78;;
83632;SDS011;73595;53.084;6.696;2024-03-02T04:23:55;3.85;;;2.47;;
83632;SDS011;73595;53.084;6.696;2024-03-02T04:26:23;4.05;;;2.42;;
83632;SDS011;73595;53.084;6.696;2024-03-02T04:28:50;5.93;;;2.30;;
83632;SDS011;73595;53.084;6.696;2024-03-02T04:31:15;3.25;;;2.40;;
83632;SDS011;73595;53.084;6.696;2024-03-02T04:33:42;4.20;;;2.35;;
83632;SDS011;73595;53.084;6.696;2024-03-02T04:36:08;4.28;;;2.50;;
83632;SDS011;73595;53.084;6.696;2024-03-02T04:38:37;4.45;;;2.40;;
83632;SDS011;73595;53.084;6.696;2024-03-02T04:41:04;6.05;;;2.72;;
83632;SDS011;73595;53.084;6.696;2024-03-02T04:43:34;4.53;;;2.53;;
83632;SDS011;73595;53.084;6.696;2024-03-02T04:46:00;3.83;;;2.42;;
83632;SDS011;73595;53.084;6.696;2024-03-02T04:48:25;4.05;;;2.40;;
83632;SDS011;73595;53.084;6.696;2024-03-02T04:50:51;5.13;;;2.30;;
83632;SDS011;73595;53.084;6.696;2024-03-02T04:53:16;6.18;;;2.20;;
83632;SDS011;73595;53.084;6.696;2024-03-02T04:55:43;4.18;;;2.30;;
83632;SDS011;73595;53.084;6.696;2024-03-02T04:58:08;3.30;;;2.28;;
83632;SDS011;73595;53.084;6.696;2024-03-02T05:00:34;5.20;;;2.78;;
83632;SDS011;73595;53.084;6.696;2024-03-02T05:03:00;3.85;;;2.20;;
83632;SDS011;73595;53.084;6.696;2024-03-02T05:05:26;3.13;;;2.30;;
83632;SDS011;73595;53.084;6.696;2024-03-02T05:07:52;2.70;;;2.10;;
83632;SDS011;73595;53.084;6.696;2024-03-02T05:10:18;3.78;;;2.50;;
83632;SDS011;73595;53.084;6.696;2024-03-02T05:12:43;4.78;;;2.15;;
83632;SDS011;73595;53.084;6.696;2024-03-02T05:15:12;6.00;;;2.42;;
83632;SDS011;73595;53.084;6.696;2024-03-02T05:17:39;3.50;;;2.05;;
83632;SDS011;73595;53.084;6.696;2024-03-02T05:20:05;2.95;;;2.10;;
83632;SDS011;73595;53.084;6.696;2024-03-02T05:22:32;5.28;;;2.60;;
83632;SDS011;73595;53.084;6.696;2024-03-02T05:25:00;3.25;;;2.40;;
83632;SDS011;73595;53.084;6.696;2024-03-02T05:27:26;3.47;;;2.60;;
83632;SDS011;73595;53.084;6.696;2024-03-02T05:29:52;5.15;;;2.53;;
83632;SDS011;73595;53.084;6.696;2024-03-02T05:32:17;4.13;;;2.45;;
83632;SDS011;73595;53.084;6.696;2024-03-02T05:34:43;6.15;;;2.70;;
83632;SDS011;73595;53.084;6.696;2024-03-02T05:37:09;4.22;;;2.50;;
83632;SDS011;73595;53.084;6.696;2024-03-02T05:39:35;4.75;;;2.35;;
83632;SDS011;73595;53.084;6.696;2024-03-02T05:42:00;4.95;;;2.50;;
83632;SDS011;73595;53.084;6.696;2024-03-02T05:44:25;3.60;;;2.50;;
83632;SDS011;73595;53.084;6.696;2024-03-02T05:46:51;3.75;;;2.50;;
83632;SDS011;73595;53.084;6.696;2024-03-02T05:49:17;5.07;;;2.60;;
83632;SDS011;73595;53.084;6.696;2024-03-02T05:51:43;3.72;;;2.20;;
83632;SDS011;73595;53.084;6.696;2024-03-02T05:54:09;3.38;;;2.30;;
83632;SDS011;73595;53.084;6.696;2024-03-02T05:56:34;4.88;;;2.60;;
83632;SDS011;73595;53.084;6.696;2024-03-02T05:59:00;4.22;;;2.22;;
83632;SDS011;73595;53.084;6.696;2024-03-02T06:01:45;3.83;;;2.33;;
83632;SDS011;73595;53.084;6.696;2024-03-02T06:04:12;5.60;;;2.13;;
83632;SDS011;73595;53.084;6.696;2024-03-02T06:06:41;3.63;;;2.05;;
83632;SDS011;73595;53.084;6.696;2024-03-02T06:09:09;4.20;;;2.35;;
83632;SDS011;73595;53.084;6.696;2024-03-02T06:11:37;3.95;;;2.25;;
83632;SDS011;73595;53.084;6.696;2024-03-02T06:14:06;3.28;;;2.30;;
83632;SDS011;73595;53.084;6.696;2024-03-02T06:16:33;5.30;;;2.10;;
83632;SDS011;73595;53.084;6.696;2024-03-02T06:18:59;6.65;;;2.22;;
83632;SDS011;73595;53.084;6.696;2024-03-02T06:21:25;3.92;;;2.80;;
83632;SDS011;73595;53.084;6.696;2024-03-02T06:23:51;4.63;;;2.28;;
83632;SDS011;73595;53.084;6.696;2024-03-02T06:26:17;2.65;;;2.10;;
83632;SDS011;73595;53.084;6.696;2024-03-02T06:28:43;5.32;;;2.45;;
83632;SDS011;73595;53.084;6.696;2024-03-02T06:31:10;3.72;;;2.10;;
83632;SDS011;73595;53.084;6.696;2024-03-02T06:33:35;4.60;;;2.35;;
83632;SDS011;73595;53.084;6.696;2024-03-02T06:36:01;3.97;;;2.17;;
83632;SDS011;73595;53.084;6.696;2024-03-02T06:38:27;7.15;;;2.67;;
83632;SDS011;73595;53.084;6.696;2024-03-02T06:40:52;3.88;;;2.50;;
83632;SDS011;73595;53.084;6.696;2024-03-02T06:43:18;4.03;;;2.67;;
83632;SDS011;73595;53.084;6.696;2024-03-02T06:45:48;4.65;;;2.60;;
83632;SDS011;73595;53.084;6.696;2024-03-02T06:48:13;3.38;;;2.22;;
83632;SDS011;73595;53.084;6.696;2024-03-02T06:50:43;5.50;;;2.30;;
83632;SDS011;73595;53.084;6.696;2024-03-02T06:53:09;5.30;;;2.58;;
83632;SDS011;73595;53.084;6.696;2024-03-02T06:55:34;4.93;;;2.42;;
83632;SDS011;73595;53.084;6.696;2024-03-02T06:57:59;4.30;;;2.35;;
83632;SDS011;73595;53.084;6.696;2024-03-02T07:00:26;4.53;;;2.42;;
83632;SDS011;73595;53.084;6.696;2024-03-02T07:02:52;3.97;;;2.60;;
83632;SDS011;73595;53.084;6.696;2024-03-02T07:05:19;5.00;;;2.47;;
83632;SDS011;73595;53.084;6.696;2024-03-02T07:07:46;5.03;;;2.70;;
83632;SDS011;73595;53.084;6.696;2024-03-02T07:10:11;3.95;;;2.70;;
83632;SDS011;73595;53.084;6.696;2024-03-02T07:12:36;5.25;;;2.80;;
83632;SDS011;73595;53.084;6.696;2024-03-02T07:15:03;4.82;;;2.80;;
83632;SDS011;73595;53.084;6.696;2024-03-02T07:17:53;6.10;;;2.70;;
83632;SDS011;73595;53.084;6.696;2024-03-02T07:20:19;3.65;;;2.50;;
83632;SDS011;73595;53.084;6.696;2024-03-02T07:22:45;3.10;;;2.58;;
83632;SDS011;73595;53.084;6.696;2024-03-02T07:25:11;4.18;;;2.70;;
83632;SDS011;73595;53.084;6.696;2024-03-02T07:27:39;3.80;;;2.40;;
83632;SDS011;73595;53.084;6.696;2024-03-02T07:30:07;5.13;;;2.65;;
83632;SDS011;73595;53.084;6.696;2024-03-02T07:32:33;6.05;;;2.45;;
83632;SDS011;73595;53.084;6.696;2024-03-02T07:34:58;4.20;;;2.30;;
83632;SDS011;73595;53.084;6.696;2024-03-02T07:37:24;5.25;;;2.40;;
83632;SDS011;73595;53.084;6.696;2024-03-02T07:39:49;3.53;;;2.22;;
83632;SDS011;73595;53.084;6.696;2024-03-02T07:42:15;4.55;;;2.42;;
83632;SDS011;73595;53.084;6.696;2024-03-02T07:44:41;4.22;;;2.70;;
83632;SDS011;73595;53.084;6.696;2024-03-02T07:47:07;4.10;;;2.80;;
83632;SDS011;73595;53.084;6.696;2024-03-02T07:49:33;6.10;;;2.58;;
83632;SDS011;73595;53.084;6.696;2024-03-02T07:51:59;3.70;;;2.35;;
83632;SDS011;73595;53.084;6.696;2024-03-02T07:54:25;3.58;;;2.50;;
83632;SDS011;73595;53.084;6.696;2024-03-02T07:56:50;5.60;;;2.70;;
83632;SDS011;73595;53.084;6.696;2024-03-02T07:59:16;3.83;;;2.40;;
83632;SDS011;73595;53.084;6.696;2024-03-02T08:01:41;3.47;;;2.35;;
83632;SDS011;73595;53.084;6.696;2024-03-02T08:04:07;4.60;;;2.03;;
83632;SDS011;73595;53.084;6.696;2024-03-02T08:06:32;3.25;;;1.90;;
83632;SDS011;73595;53.084;6.696;2024-03-02T08:08:59;2.60;;;1.85;;
83632;SDS011;73595;53.084;6.696;2024-03-02T08:11:29;2.75;;;1.80;;
83632;SDS011;73595;53.084;6.696;2024-03-02T08:13:55;7.88;;;1.60;;
83632;SDS011;73595;53.084;6.696;2024-03-02T08:16:26;1.90;;;1.35;;
83632;SDS011;73595;53.084;6.696;2024-03-02T08:18:53;2.28;;;1.50;;
83632;SDS011;73595;53.084;6.696;2024-03-02T08:21:19;2.95;;;1.27;;
83632;SDS011;73595;53.084;6.696;2024-03-02T08:23:45;3.53;;;1.40;;
83632;SDS011;73595;53.084;6.696;2024-03-02T08:26:13;2.13;;;1.30;;
83632;SDS011;73595;53.084;6.696;2024-03-02T08:28:39;2.70;;;1.40;;
83632;SDS011;73595;53.084;6.696;2024-03-02T08:31:08;3.38;;;1.50;;
83632;SDS011;73595;53.084;6.696;2024-03-02T08:33:35;1.95;;;1.45;;
83632;SDS011;73595;53.084;6.696;2024-03-02T08:36:00;3.85;;;1.83;;
83632;SDS011;73595;53.084;6.696;2024-03-02T08:38:28;5.63;;;2.22;;
83632;SDS011;73595;53.084;6.696;2024-03-02T08:40:54;4.43;;;2.00;;
83632;SDS011;73595;53.084;6.696;2024-03-02T08:43:24;3.55;;;1.95;;
83632;SDS011;73595;53.084;6.696;2024-03-02T08:45:53;2.30;;;1.38;;
83632;SDS011;73595;53.084;6.696;2024-03-02T08:48:19;3.47;;;1.65;;
83632;SDS011;73595;53.084;6.696;2024-03-02T08:51:06;2.70;;;1.27;;
83632;SDS011;73595;53.084;6.696;2024-03-02T08:54:18;4.78;;;1.45;;
83632;SDS011;73595;53.084;6.696;2024-03-02T08:56:44;2.70;;;1.60;;
83632;SDS011;73595;53.084;6.696;2024-03-02T08:59:16;2.17;;;1.67;;
83632;SDS011;73595;53.084;6.696;2024-03-02T09:01:42;4.18;;;1.52;;
83632;SDS011;73595;53.084;6.696;2024-03-02T09:04:10;2.35;;;1.40;;
83632;SDS011;73595;53.084;6.696;2024-03-02T09:06:45;4.70;;;1.30;;
83632;SDS011;73595;53.084;6.696;2024-03-02T09:09:10;3.88;;;1.90;;
83632;SDS011;73595;53.084;6.696;2024-03-02T09:11:35;2.75;;;1.13;;
83632;SDS011;73595;53.084;6.696;2024-03-02T09:14:01;2.45;;;1.10;;
83632;SDS011;73595;53.084;6.696;2024-03-02T09:16:26;3.05;;;1.40;;
83632;SDS011;73595;53.084;6.696;2024-03-02T09:18:55;6.60;;;0.88;;
83632;SDS011;73595;53.084;6.696;2024-03-02T09:21:21;2.22;;;1.10;;
83632;SDS011;73595;53.084;6.696;2024-03-02T09:23:47;1.85;;;1.10;;
83632;SDS011;73595;53.084;6.696;2024-03-02T09:26:13;3.92;;;1.20;;
83632;SDS011;73595;53.084;6.696;2024-03-02T09:28:42;3.40;;;1.05;;
83632;SDS011;73595;53.084;6.696;2024-03-02T09:31:09;2.13;;;1.08;;
83632;SDS011;73595;53.084;6.696;2024-03-02T09:33:34;2.65;;;1.00;;
83632;SDS011;73595;53.084;6.696;2024-03-02T09:35:59;3.03;;;1.10;;
83632;SDS011;73595;53.084;6.696;2024-03-02T09:38:25;1.17;;;0.85;;
83632;SDS011;73595;53.084;6.696;2024-03-02T09:40:51;3.20;;;0.82;;
83632;SDS011;73595;53.084;6.696;2024-03-02T09:43:17;3.80;;;0.80;;
83632;SDS011;73595;53.084;6.696;2024-03-02T09:45:43;2.42;;;1.08;;
83632;SDS011;73595;53.084;6.696;2024-03-02T09:48:10;2.85;;;0.90;;
83632;SDS011;73595;53.084;6.696;2024-03-02T09:50:35;3.45;;;0.82;;
83632;SDS011;73595;53.084;6.696;2024-03-02T09:53:00;4.85;;;0.90;;
83632;SDS011;73595;53.084;6.696;2024-03-02T09:55:29;1.35;;;0.85;;
83632;SDS011;73595;53.084;6.696;2024-03-02T09:57:54;2.30;;;0.70;;
83632;SDS011;73595;53.084;6.696;2024-03-02T10:00:22;1.95;;;0.77;;
83632;SDS011;73595;53.084;6.696;2024-03-02T10:02:47;1.77;;;1.00;;
83632;SDS011;73595;53.084;6.696;2024-03-02T10:05:18;2.63;;;0.90;;
83632;SDS011;73595;53.084;6.696;2024-03-02T10:08:02;2.20;;;0.90;;
83632;SDS011;73595;53.084;6.696;2024-03-02T10:10:37;1.90;;;0.88;;
83632;SDS011;73595;53.084;6.696;2024-03-02T10:13:08;3.70;;;0.95;;
83632;SDS011;73595;53.084;6.696;2024-03-02T10:15:39;2.45;;;1.00;;
83632;SDS011;73595;53.084;6.696;2024-03-02T10:18:09;2.58;;;0.90;;
83632;SDS011;73595;53.084;6.696;2024-03-02T10:20:37;3.65;;;1.17;;
83632;SDS011;73595;53.084;6.696;2024-03-02T10:23:09;2.53;;;0.90;;
83632;SDS011;73595;53.084;6.696;2024-03-02T10:25:35;1.77;;;0.82;;
83632;SDS011;73595;53.084;6.696;2024-03-02T10:28:01;4.15;;;1.42;;
83632;SDS011;73595;53.084;6.696;2024-03-02T10:30:27;1.92;;;0.98;;
83632;SDS011;73595;53.084;6.696;2024-03-02T10:32:53;2.40;;;0.80;;
83632;SDS011;73595;53.084;6.696;2024-03-02T10:35:23;2.67;;;1.00;;
83632;SDS011;73595;53.084;6.696;2024-03-02T10:37:53;2.25;;;1.00;;
83632;SDS011;73595;53.084;6.696;2024-03-02T10:40:22;1.83;;;0.90;;
83632;SDS011;73595;53.084;6.696;2024-03-02T10:42:48;2.05;;;0.90;;
83632;SDS011;73595;53.084;6.696;2024-03-02T10:45:15;4.38;;;1.20;;
83632;SDS011;73595;53.084;6.696;2024-03-02T10:47:42;2.40;;;0.90;;
83632;SDS011;73595;53.084;6.696;2024-03-02T10:50:08;1.35;;;0.80;;
83632;SDS011;73595;53.084;6.696;2024-03-02T10:52:37;2.15;;;1.10;;
83632;SDS011;73595;53.084;6.696;2024-03-02T10:55:04;3.70;;;1.20;;
83632;SDS011;73595;53.084;6.696;2024-03-02T10:57:36;3.15;;;1.13;;
83632;SDS011;73595;53.084;6.696;2024-03-02T11:00:07;2.80;;;1.02;;
83632;SDS011;73595;53.084;6.696;2024-03-02T11:02:40;3.53;;;1.17;;
83632;SDS011;73595;53.084;6.696;2024-03-02T11:05:11;4.63;;;1.10;;
83632;SDS011;73595;53.084;6.696;2024-03-02T11:07:38;2.85;;;1.23;;
83632;SDS011;73595;53.084;6.696;2024-03-02T11:10:05;1.85;;;1.15;;
83632;SDS011;73595;53.084;6.696;2024-03-02T11:12:38;2.35;;;1.60;;
83632;SDS011;73595;53.084;6.696;2024-03-02T11:15:12;2.80;;;1.20;;
83632;SDS011;73595;53.084;6.696;2024-03-02T11:17:42;2.25;;;1.15;;
83632;SDS011;73595;53.084;6.696;2024-03-02T11:20:09;3.75;;;1.23;;
83632;SDS011;73595;53.084;6.696;2024-03-02T11:22:36;2.42;;;1.50;;
83632;SDS011;73595;53.084;6.696;2024-03-02T11:25:03;3.08;;;1.60;;
83632;SDS011;73595;53.084;6.696;2024-03-02T11:32:56;4.35;;;1.50;;
83632;SDS011;73595;53.084;6.696;2024-03-02T11:35:24;4.82;;;1.63;;
83632;SDS011;73595;53.084;6.696;2024-03-02T11:37:50;3.38;;;1.65;;
83632;SDS011;73595;53.084;6.696;2024-03-02T11:40:21;2.05;;;1.05;;
83632;SDS011;73595;53.084;6.696;2024-03-02T11:42:47;2.63;;;1.05;;
83632;SDS011;73595;53.084;6.696;2024-03-02T11:45:16;2.83;;;1.40;;
83632;SDS011;73595;53.084;6.696;2024-03-02T11:47:46;4.75;;;1.58;;
83632;SDS011;73595;53.084;6.696;2024-03-02T11:50:26;4.85;;;1.92;;
83632;SDS011;73595;53.084;6.696;2024-03-02T11:53:12;4.20;;;1.90;;
83632;SDS011;73595;53.084;6.696;2024-03-02T11:55:38;4.78;;;1.70;;
83632;SDS011;73595;53.084;6.696;2024-03-02T11:58:07;5.18;;;1.50;;
83632;SDS011;73595;53.084;6.696;2024-03-02T12:03:27;3.90;;;1.42;;
83632;SDS011;73595;53.084;6.696;2024-03-02T12:05:53;5.13;;;1.48;;
83632;SDS011;73595;53.084;6.696;2024-03-02T12:08:19;5.10;;;1.80;;
83632;SDS011;73595;53.084;6.696;2024-03-02T12:10:55;3.92;;;1.70;;
83632;SDS011;73595;53.084;6.696;2024-03-02T12:13:25;3.05;;;1.50;;
83632;SDS011;73595;53.084;6.696;2024-03-02T12:15:55;3.70;;;1.45;;
83632;SDS011;73595;53.084;6.696;2024-03-02T12:18:21;3.00;;;1.50;;
83632;SDS011;73595;53.084;6.696;2024-03-02T12:20:48;4.70;;;2.00;;
83632;SDS011;73595;53.084;6.696;2024-03-02T12:23:14;7.10;;;3.80;;
83632;SDS011;73595;53.084;6.696;2024-03-02T12:25:39;3.97;;;2.00;;
83632;SDS011;73595;53.084;6.696;2024-03-02T12:28:05;2.35;;;1.35;;
83632;SDS011;73595;53.084;6.696;2024-03-02T12:30:31;5.70;;;1.45;;
83632;SDS011;73595;53.084;6.696;2024-03-02T12:33:00;4.20;;;1.73;;
83632;SDS011;73595;53.084;6.696;2024-03-02T12:35:27;3.40;;;1.58;;
83632;SDS011;73595;53.084;6.696;2024-03-02T12:37:53;2.35;;;1.48;;
83632;SDS011;73595;53.084;6.696;2024-03-02T12:40:19;2.42;;;1.65;;
83632;SDS011;73595;53.084;6.696;2024-03-02T12:42:47;5.20;;;1.77;;
83632;SDS011;73595;53.084;6.696;2024-03-02T12:45:13;3.33;;;1.80;;
83632;SDS011;73595;53.084;6.696;2024-03-02T12:47:39;4.82;;;2.17;;
83632;SDS011;73595;53.084;6.696;2024-03-02T12:50:06;6.15;;;2.45;;
83632;SDS011;73595;53.084;6.696;2024-03-02T12:52:32;4.75;;;2.30;;
83632;SDS011;73595;53.084;6.696;2024-03-02T12:54:59;6.60;;;2.50;;
83632;SDS011;73595;53.084;6.696;2024-03-02T12:57:26;4.50;;;2.38;;
83632;SDS011;73595;53.084;6.696;2024-03-02T12:59:52;4.13;;;2.30;;
83632;SDS011;73595;53.084;6.696;2024-03-02T13:02:21;3.90;;;2.60;;
83632;SDS011;73595;53.084;6.696;2024-03-02T13:04:53;4.78;;;2.65;;
83632;SDS011;73595;53.084;6.696;2024-03-02T13:07:19;5.40;;;2.60;;
83632;SDS011;73595;53.084;6.696;2024-03-02T13:09:45;3.92;;;2.40;;
83632;SDS011;73595;53.084;6.696;2024-03-02T13:12:11;5.05;;;2.53;;
83632;SDS011;73595;53.084;6.696;2024-03-02T13:14:37;5.10;;;2.38;;
83632;SDS011;73595;53.084;6.696;2024-03-02T13:17:03;3.78;;;2.30;;
83632;SDS011;73595;53.084;6.696;2024-03-02T13:19:30;6.47;;;2.67;;
83632;SDS011;73595;53.084;6.696;2024-03-02T13:21:56;5.78;;;2.60;;
83632;SDS011;73595;53.084;6.696;2024-03-02T13:24:22;3.67;;;2.10;;
83632;SDS011;73595;53.084;6.696;2024-03-02T13:26:50;3.55;;;2.17;;
83632;SDS011;73595;53.084;6.696;2024-03-02T13:29:20;4.35;;;2.53;;
83632;SDS011;73595;53.084;6.696;2024-03-02T13:31:46;4.75;;;2.20;;
83632;SDS011;73595;53.084;6.696;2024-03-02T13:34:11;6.20;;;2.20;;
83632;SDS011;73595;53.084;6.696;2024-03-02T13:36:37;4.13;;;2.10;;
83632;SDS011;73595;53.084;6.696;2024-03-02T13:39:03;3.72;;;2.10;;
83632;SDS011;73595;53.084;6.696;2024-03-02T13:41:30;4.68;;;2.30;;
83632;SDS011;73595;53.084;6.696;2024-03-02T13:43:56;3.30;;;2.33;;
83632;SDS011;73595;53.084;6.696;2024-03-02T13:46:26;4.55;;;2.13;;
83632;SDS011;73595;53.084;6.696;2024-03-02T13:48:51;2.78;;;1.80;;
83632;SDS011;73595;53.084;6.696;2024-03-02T13:51:17;6.15;;;1.90;;
83632;SDS011;73595;53.084;6.696;2024-03-02T13:53:42;4.70;;;2.17;;
83632;SDS011;73595;53.084;6.696;2024-03-02T13:56:07;3.97;;;1.90;;
83632;SDS011;73595;53.084;6.696;2024-03-02T13:58:33;3.28;;;1.60;;
83632;SDS011;73595;53.084;6.696;2024-03-02T14:00:58;2.90;;;2.03;;
83632;SDS011;73595;53.084;6.696;2024-03-02T14:03:24;4.10;;;1.52;;
83632;SDS011;73595;53.084;6.696;2024-03-02T14:05:49;4.95;;;1.52;;
83632;SDS011;73595;53.084;6.696;2024-03-02T14:08:15;4.25;;;1.40;;
83632;SDS011;73595;53.084;6.696;2024-03-02T14:10:40;2.70;;;1.25;;
83632;SDS011;73595;53.084;6.696;2024-03-02T14:13:07;2.85;;;1.10;;
83632;SDS011;73595;53.084;6.696;2024-03-02T14:15:33;2.75;;;1.10;;
83632;SDS011;73595;53.084;6.696;2024-03-02T14:17:58;1.98;;;0.90;;
83632;SDS011;73595;53.084;6.696;2024-03-02T14:20:23;2.92;;;1.10;;
83632;SDS011;73595;53.084;6.696;2024-03-02T14:22:49;3.17;;;0.90;;
83632;SDS011;73595;53.084;6.696;2024-03-02T14:25:14;3.58;;;1.02;;
83632;SDS011;73595;53.084;6.696;2024-03-02T14:27:40;1.90;;;0.80;;
83632;SDS011;73595;53.084;6.696;2024-03-02T14:30:05;1.98;;;1.00;;
83632;SDS011;73595;53.084;6.696;2024-03-02T14:32:32;6.05;;;0.98;;
83632;SDS011;73595;53.084;6.696;2024-03-02T14:34:57;3.17;;;1.17;;
83632;SDS011;73595;53.084;6.696;2024-03-02T14:37:23;4.55;;;1.30;;
83632;SDS011;73595;53.084;6.696;2024-03-02T14:39:48;2.88;;;1.27;;
83632;SDS011;73595;53.084;6.696;2024-03-02T14:42:15;6.95;;;4.15;;
83632;SDS011;73595;53.084;6.696;2024-03-02T14:44:41;7.65;;;3.88;;
83632;SDS011;73595;53.084;6.696;2024-03-02T14:47:09;3.70;;;1.60;;
83632;SDS011;73595;53.084;6.696;2024-03-02T14:49:37;4.57;;;1.30;;
83632;SDS011;73595;53.084;6.696;2024-03-02T14:52:06;2.70;;;1.40;;
83632;SDS011;73595;53.084;6.696;2024-03-02T14:54:34;2.78;;;1.67;;
83632;SDS011;73595;53.084;6.696;2024-03-02T14:57:00;4.82;;;1.55;;